sensor_id;sensor_type;location;lat;lon;timestamp;P1;durP1;ratioP1;P2;durP2;ratioP2
64609;SDS011;51019;46.090;6.350;2023-04-03T00:00:45;17.08;;;6.95;;
64609;SDS011;51019;46.090;6.350;2023-04-03T00:03:14;17.85;;;7.72;;
64609;SDS011;51019;46.090;6.350;2023-04-03T00:05:41;17.17;;;6.90;;
64609;SDS011;51019;46.090;6.350;2023-04-03T00:08:09;18.23;;;7.88;;
64609;SDS011;51019;46.090;6.350;2023-04-03T00:10:36;20.02;;;8.73;;
64609;SDS011;51019;46.090;6.350;2023-04-03T00:13:06;20.35;;;7.65;;
64609;SDS011;51019;46.090;6.350;2023-04-03T00:15:35;21.55;;;8.32;;
64609;SDS011;51019;46.090;6.350;2023-04-03T00:18:02;20.42;;;9.20;;
64609;SDS011;51019;46.090;6.350;2023-04-03T00:20:30;26.02;;;7.90;;
64609;SDS011;51019;46.090;6.350;2023-04-03T00:22:58;22.15;;;8.10;;
64609;SDS011;51019;46.090;6.350;2023-04-03T00:25:25;18.98;;;6.95;;
64609;SDS011;51019;46.090;6.350;2023-04-03T00:27:53;16.15;;;5.93;;
64609;SDS011;51019;46.090;6.350;2023-04-03T00:30:22;24.13;;;7.80;;
64609;SDS011;51019;46.090;6.350;2023-04-03T00:32:51;25.27;;;7.28;;
64609;SDS011;51019;46.090;6.350;2023-04-03T00:35:20;22.35;;;8.05;;
64609;SDS011;51019;46.090;6.350;2023-04-03T00:37:50;19.23;;;7.40;;
64609;SDS011;51019;46.090;6.350;2023-04-03T00:40:18;20.60;;;8.65;;
64609;SDS011;51019;46.090;6.350;2023-04-03T00:42:48;22.15;;;8.13;;
64609;SDS011;51019;46.090;6.350;2023-04-03T00:48:05;19.77;;;7.18;;
64609;SDS011;51019;46.090;6.350;2023-04-03T00:50:38;16.50;;;7.07;;
64609;SDS011;51019;46.090;6.350;2023-04-03T00:53:08;17.35;;;7.07;;
64609;SDS011;51019;46.090;6.350;2023-04-03T00:55:46;15.45;;;6.97;;
64609;SDS011;51019;46.090;6.350;2023-04-03T00:58:15;16.55;;;6.22;;
64609;SDS011;51019;46.090;6.350;2023-04-03T01:00:50;15.88;;;6.25;;
64609;SDS011;51019;46.090;6.350;2023-04-03T01:03:22;15.13;;;6.60;;
64609;SDS011;51019;46.090;6.350;2023-04-03T01:05:51;14.63;;;5.82;;
64609;SDS011;51019;46.090;6.350;2023-04-03T01:08:18;15.68;;;6.53;;
64609;SDS011;51019;46.090;6.350;2023-04-03T01:10:47;16.67;;;6.50;;
64609;SDS011;51019;46.090;6.350;2023-04-03T01:13:19;15.88;;;7.90;;
64609;SDS011;51019;46.090;6.350;2023-04-03T01:15:51;16.27;;;6.82;;
64609;SDS011;51019;46.090;6.350;2023-04-03T01:18:19;16.33;;;6.80;;
64609;SDS011;51019;46.090;6.350;2023-04-03T01:24:01;13.90;;;5.75;;
64609;SDS011;51019;46.090;6.350;2023-04-03T01:26:38;16.35;;;6.97;;
64609;SDS011;51019;46.090;6.350;2023-04-03T01:29:06;17.85;;;6.78;;
64609;SDS011;51019;46.090;6.350;2023-04-03T01:31:43;14.70;;;5.70;;
64609;SDS011;51019;46.090;6.350;2023-04-03T01:34:15;15.55;;;6.70;;
64609;SDS011;51019;46.090;6.350;2023-04-03T01:36:43;15.55;;;6.30;;
64609;SDS011;51019;46.090;6.350;2023-04-03T01:39:10;20.63;;;6.68;;
64609;SDS011;51019;46.090;6.350;2023-04-03T01:41:37;19.75;;;6.90;;
64609;SDS011;51019;46.090;6.350;2023-04-03T01:44:05;16.48;;;6.85;;
64609;SDS011;51019;46.090;6.350;2023-04-03T01:46:32;17.10;;;7.15;;
64609;SDS011;51019;46.090;6.350;2023-04-03T01:49:02;16.33;;;7.10;;
64609;SDS011;51019;46.090;6.350;2023-04-03T01:51:29;16.60;;;6.40;;
64609;SDS011;51019;46.090;6.350;2023-04-03T01:53:56;14.68;;;6.30;;
64609;SDS011;51019;46.090;6.350;2023-04-03T01:56:25;15.80;;;7.07;;
64609;SDS011;51019;46.090;6.350;2023-04-03T01:58:53;17.35;;;7.45;;
64609;SDS011;51019;46.090;6.350;2023-04-03T02:01:20;14.85;;;7.03;;
64609;SDS011;51019;46.090;6.350;2023-04-03T02:03:48;18.40;;;7.50;;
64609;SDS011;51019;46.090;6.350;2023-04-03T02:06:17;16.50;;;6.93;;
64609;SDS011;51019;46.090;6.350;2023-04-03T02:08:46;17.70;;;7.97;;
64609;SDS011;51019;46.090;6.350;2023-04-03T02:11:14;16.48;;;7.13;;
64609;SDS011;51019;46.090;6.350;2023-04-03T02:13:41;16.77;;;7.15;;
64609;SDS011;51019;46.090;6.350;2023-04-03T02:16:09;18.40;;;7.68;;
64609;SDS011;51019;46.090;6.350;2023-04-03T02:18:38;15.38;;;6.45;;
64609;SDS011;51019;46.090;6.350;2023-04-03T02:21:06;15.15;;;6.95;;
64609;SDS011;51019;46.090;6.350;2023-04-03T02:23:35;17.33;;;7.45;;
64609;SDS011;51019;46.090;6.350;2023-04-03T02:26:06;16.90;;;7.13;;
64609;SDS011;51019;46.090;6.350;2023-04-03T02:28:34;16.70;;;8.00;;
64609;SDS011;51019;46.090;6.350;2023-04-03T02:31:04;16.17;;;7.28;;
64609;SDS011;51019;46.090;6.350;2023-04-03T02:33:33;21.85;;;8.57;;
64609;SDS011;51019;46.090;6.350;2023-04-03T02:36:01;15.77;;;6.70;;
64609;SDS011;51019;46.090;6.350;2023-04-03T02:38:30;15.40;;;6.40;;
64609;SDS011;51019;46.090;6.350;2023-04-03T02:41:01;18.27;;;7.35;;
64609;SDS011;51019;46.090;6.350;2023-04-03T02:43:29;16.08;;;6.90;;
64609;SDS011;51019;46.090;6.350;2023-04-03T02:45:56;16.30;;;6.40;;
64609;SDS011;51019;46.090;6.350;2023-04-03T02:48:24;15.10;;;6.35;;
64609;SDS011;51019;46.090;6.350;2023-04-03T02:50:51;15.32;;;6.72;;
64609;SDS011;51019;46.090;6.350;2023-04-03T02:53:19;17.13;;;7.38;;
64609;SDS011;51019;46.090;6.350;2023-04-03T02:55:47;14.65;;;6.38;;
64609;SDS011;51019;46.090;6.350;2023-04-03T02:58:16;15.38;;;6.20;;
64609;SDS011;51019;46.090;6.350;2023-04-03T03:00:43;15.25;;;6.35;;
64609;SDS011;51019;46.090;6.350;2023-04-03T03:03:11;14.43;;;6.35;;
64609;SDS011;51019;46.090;6.350;2023-04-03T03:05:38;14.60;;;6.25;;
64609;SDS011;51019;46.090;6.350;2023-04-03T03:08:06;16.27;;;6.85;;
64609;SDS011;51019;46.090;6.350;2023-04-03T03:10:33;15.90;;;6.32;;
64609;SDS011;51019;46.090;6.350;2023-04-03T03:13:01;15.15;;;6.75;;
64609;SDS011;51019;46.090;6.350;2023-04-03T03:15:30;15.07;;;6.53;;
64609;SDS011;51019;46.090;6.350;2023-04-03T03:17:57;14.82;;;6.38;;
64609;SDS011;51019;46.090;6.350;2023-04-03T03:20:25;15.30;;;6.85;;
64609;SDS011;51019;46.090;6.350;2023-04-03T03:22:52;15.10;;;6.13;;
64609;SDS011;51019;46.090;6.350;2023-04-03T03:25:20;14.88;;;6.55;;
64609;SDS011;51019;46.090;6.350;2023-04-03T03:27:47;15.55;;;6.43;;
64609;SDS011;51019;46.090;6.350;2023-04-03T03:30:15;15.65;;;6.28;;
64609;SDS011;51019;46.090;6.350;2023-04-03T03:32:44;15.70;;;6.68;;
64609;SDS011;51019;46.090;6.350;2023-04-03T03:35:11;17.15;;;7.32;;
64609;SDS011;51019;46.090;6.350;2023-04-03T03:37:39;14.02;;;6.72;;
64609;SDS011;51019;46.090;6.350;2023-04-03T03:40:07;14.95;;;6.53;;
64609;SDS011;51019;46.090;6.350;2023-04-03T03:42:36;14.52;;;6.22;;
64609;SDS011;51019;46.090;6.350;2023-04-03T03:45:04;14.73;;;6.18;;
64609;SDS011;51019;46.090;6.350;2023-04-03T03:47:32;15.20;;;6.72;;
64609;SDS011;51019;46.090;6.350;2023-04-03T03:50:01;15.85;;;6.57;;
64609;SDS011;51019;46.090;6.350;2023-04-03T03:52:29;16.63;;;6.10;;
64609;SDS011;51019;46.090;6.350;2023-04-03T03:54:56;14.32;;;6.38;;
64609;SDS011;51019;46.090;6.350;2023-04-03T03:57:24;20.55;;;6.60;;
64609;SDS011;51019;46.090;6.350;2023-04-03T03:59:53;15.23;;;6.55;;
64609;SDS011;51019;46.090;6.350;2023-04-03T04:02:21;17.08;;;7.18;;
64609;SDS011;51019;46.090;6.350;2023-04-03T04:04:48;18.02;;;7.50;;
64609;SDS011;51019;46.090;6.350;2023-04-03T04:07:17;17.75;;;7.35;;
64609;SDS011;51019;46.090;6.350;2023-04-03T04:09:44;17.17;;;7.97;;
64609;SDS011;51019;46.090;6.350;2023-04-03T04:12:12;17.00;;;7.88;;
64609;SDS011;51019;46.090;6.350;2023-04-03T04:14:39;16.40;;;7.05;;
64609;SDS011;51019;46.090;6.350;2023-04-03T04:17:06;20.60;;;7.30;;
64609;SDS011;51019;46.090;6.350;2023-04-03T04:19:33;17.67;;;7.85;;
64609;SDS011;51019;46.090;6.350;2023-04-03T04:22:00;16.95;;;8.07;;
64609;SDS011;51019;46.090;6.350;2023-04-03T04:24:30;16.52;;;7.75;;
64609;SDS011;51019;46.090;6.350;2023-04-03T04:26:57;17.80;;;7.90;;
64609;SDS011;51019;46.090;6.350;2023-04-03T04:29:25;18.88;;;7.97;;
64609;SDS011;51019;46.090;6.350;2023-04-03T04:31:52;17.98;;;7.85;;
64609;SDS011;51019;46.090;6.350;2023-04-03T04:34:20;17.33;;;7.50;;
64609;SDS011;51019;46.090;6.350;2023-04-03T04:36:47;16.33;;;7.03;;
64609;SDS011;51019;46.090;6.350;2023-04-03T04:39:15;17.08;;;6.78;;
64609;SDS011;51019;46.090;6.350;2023-04-03T04:41:44;16.85;;;7.05;;
64609;SDS011;51019;46.090;6.350;2023-04-03T04:44:12;18.92;;;9.02;;
64609;SDS011;51019;46.090;6.350;2023-04-03T04:46:39;18.45;;;8.15;;
64609;SDS011;51019;46.090;6.350;2023-04-03T04:49:06;16.30;;;7.32;;
64609;SDS011;51019;46.090;6.350;2023-04-03T04:51:34;17.77;;;7.70;;
64609;SDS011;51019;46.090;6.350;2023-04-03T04:54:02;17.75;;;7.80;;
64609;SDS011;51019;46.090;6.350;2023-04-03T04:56:30;15.52;;;7.22;;
64609;SDS011;51019;46.090;6.350;2023-04-03T04:58:59;21.42;;;7.90;;
64609;SDS011;51019;46.090;6.350;2023-04-03T05:01:26;19.08;;;8.80;;
64609;SDS011;51019;46.090;6.350;2023-04-03T05:03:54;19.73;;;8.93;;
64609;SDS011;51019;46.090;6.350;2023-04-03T05:06:21;19.52;;;8.18;;
64609;SDS011;51019;46.090;6.350;2023-04-03T05:08:48;20.52;;;8.63;;
64609;SDS011;51019;46.090;6.350;2023-04-03T05:11:15;17.05;;;8.38;;
64609;SDS011;51019;46.090;6.350;2023-04-03T05:13:43;20.70;;;8.95;;
64609;SDS011;51019;46.090;6.350;2023-04-03T05:16:11;20.20;;;8.88;;
64609;SDS011;51019;46.090;6.350;2023-04-03T05:18:39;18.58;;;8.40;;
64609;SDS011;51019;46.090;6.350;2023-04-03T05:21:07;19.85;;;8.57;;
64609;SDS011;51019;46.090;6.350;2023-04-03T05:23:34;18.15;;;8.63;;
64609;SDS011;51019;46.090;6.350;2023-04-03T05:26:02;20.73;;;9.20;;
64609;SDS011;51019;46.090;6.350;2023-04-03T05:28:29;19.17;;;8.80;;
64609;SDS011;51019;46.090;6.350;2023-04-03T05:30:57;21.40;;;9.52;;
64609;SDS011;51019;46.090;6.350;2023-04-03T05:33:27;21.02;;;9.57;;
64609;SDS011;51019;46.090;6.350;2023-04-03T05:35:55;18.27;;;8.07;;
64609;SDS011;51019;46.090;6.350;2023-04-03T05:38:22;18.55;;;8.35;;
64609;SDS011;51019;46.090;6.350;2023-04-03T05:40:49;20.45;;;9.50;;
64609;SDS011;51019;46.090;6.350;2023-04-03T05:43:17;24.10;;;14.90;;
64609;SDS011;51019;46.090;6.350;2023-04-03T05:45:44;25.23;;;10.98;;
64609;SDS011;51019;46.090;6.350;2023-04-03T05:48:13;20.67;;;8.73;;
64609;SDS011;51019;46.090;6.350;2023-04-03T05:50:43;18.50;;;8.73;;
64609;SDS011;51019;46.090;6.350;2023-04-03T05:53:11;19.55;;;11.73;;
64609;SDS011;51019;46.090;6.350;2023-04-03T05:55:44;19.83;;;10.05;;
64609;SDS011;51019;46.090;6.350;2023-04-03T05:58:11;22.88;;;13.00;;
64609;SDS011;51019;46.090;6.350;2023-04-03T06:00:38;21.98;;;11.55;;
64609;SDS011;51019;46.090;6.350;2023-04-03T06:03:05;20.20;;;9.05;;
64609;SDS011;51019;46.090;6.350;2023-04-03T06:05:33;19.65;;;9.48;;
64609;SDS011;51019;46.090;6.350;2023-04-03T06:08:03;19.48;;;10.00;;
64609;SDS011;51019;46.090;6.350;2023-04-03T06:10:31;19.13;;;9.98;;
64609;SDS011;51019;46.090;6.350;2023-04-03T06:12:58;23.88;;;10.50;;
64609;SDS011;51019;46.090;6.350;2023-04-03T06:15:25;18.75;;;9.35;;
64609;SDS011;51019;46.090;6.350;2023-04-03T06:17:53;20.98;;;9.25;;
64609;SDS011;51019;46.090;6.350;2023-04-03T06:20:20;20.00;;;9.93;;
64609;SDS011;51019;46.090;6.350;2023-04-03T06:22:47;20.52;;;9.35;;
64609;SDS011;51019;46.090;6.350;2023-04-03T06:25:17;20.92;;;9.27;;
64609;SDS011;51019;46.090;6.350;2023-04-03T06:27:46;20.50;;;10.10;;
64609;SDS011;51019;46.090;6.350;2023-04-03T06:30:13;19.08;;;9.20;;
64609;SDS011;51019;46.090;6.350;2023-04-03T06:32:41;22.17;;;9.70;;
64609;SDS011;51019;46.090;6.350;2023-04-03T06:35:08;21.52;;;10.38;;
64609;SDS011;51019;46.090;6.350;2023-04-03T06:37:37;25.85;;;10.70;;
64609;SDS011;51019;46.090;6.350;2023-04-03T06:40:05;23.65;;;9.23;;
64609;SDS011;51019;46.090;6.350;2023-04-03T06:42:36;24.45;;;9.65;;
64609;SDS011;51019;46.090;6.350;2023-04-03T06:45:03;21.05;;;8.68;;
64609;SDS011;51019;46.090;6.350;2023-04-03T06:47:32;20.58;;;9.52;;
64609;SDS011;51019;46.090;6.350;2023-04-03T06:50:00;18.45;;;8.38;;
64609;SDS011;51019;46.090;6.350;2023-04-03T06:52:28;16.98;;;8.07;;
64609;SDS011;51019;46.090;6.350;2023-04-03T06:54:55;19.52;;;9.50;;
64609;SDS011;51019;46.090;6.350;2023-04-03T06:57:24;20.08;;;8.98;;
64609;SDS011;51019;46.090;6.350;2023-04-03T06:59:54;19.58;;;8.85;;
64609;SDS011;51019;46.090;6.350;2023-04-03T07:02:21;18.55;;;8.70;;
64609;SDS011;51019;46.090;6.350;2023-04-03T07:04:49;18.52;;;8.30;;
64609;SDS011;51019;46.090;6.350;2023-04-03T07:07:16;17.90;;;8.63;;
64609;SDS011;51019;46.090;6.350;2023-04-03T07:09:44;17.60;;;8.40;;
64609;SDS011;51019;46.090;6.350;2023-04-03T07:12:13;18.85;;;8.15;;
64609;SDS011;51019;46.090;6.350;2023-04-03T07:14:41;17.48;;;8.23;;
64609;SDS011;51019;46.090;6.350;2023-04-03T07:17:11;18.50;;;7.95;;
64609;SDS011;51019;46.090;6.350;2023-04-03T07:19:38;16.30;;;7.70;;
64609;SDS011;51019;46.090;6.350;2023-04-03T07:22:05;17.27;;;8.30;;
64609;SDS011;51019;46.090;6.350;2023-04-03T07:24:33;18.02;;;8.07;;
64609;SDS011;51019;46.090;6.350;2023-04-03T07:27:00;19.10;;;9.18;;
64609;SDS011;51019;46.090;6.350;2023-04-03T07:29:29;18.33;;;8.10;;
64609;SDS011;51019;46.090;6.350;2023-04-03T07:31:56;18.20;;;7.05;;
64609;SDS011;51019;46.090;6.350;2023-04-03T07:34:26;17.38;;;8.50;;
64609;SDS011;51019;46.090;6.350;2023-04-03T07:36:55;18.15;;;8.70;;
64609;SDS011;51019;46.090;6.350;2023-04-03T07:39:23;16.85;;;7.30;;
64609;SDS011;51019;46.090;6.350;2023-04-03T07:41:50;18.30;;;7.97;;
64609;SDS011;51019;46.090;6.350;2023-04-03T07:44:17;15.73;;;6.75;;
64609;SDS011;51019;46.090;6.350;2023-04-03T07:46:45;14.02;;;4.72;;
64609;SDS011;51019;46.090;6.350;2023-04-03T07:49:13;12.90;;;4.65;;
64609;SDS011;51019;46.090;6.350;2023-04-03T07:51:43;10.63;;;3.45;;
64609;SDS011;51019;46.090;6.350;2023-04-03T07:54:11;10.23;;;2.95;;
64609;SDS011;51019;46.090;6.350;2023-04-03T07:56:39;9.60;;;2.63;;
64609;SDS011;51019;46.090;6.350;2023-04-03T07:59:08;9.20;;;2.67;;
64609;SDS011;51019;46.090;6.350;2023-04-03T08:01:35;9.77;;;2.90;;
64609;SDS011;51019;46.090;6.350;2023-04-03T08:04:03;12.07;;;3.72;;
64609;SDS011;51019;46.090;6.350;2023-04-03T08:06:30;12.07;;;3.38;;
64609;SDS011;51019;46.090;6.350;2023-04-03T08:09:03;11.13;;;3.13;;
64609;SDS011;51019;46.090;6.350;2023-04-03T08:11:31;10.60;;;2.80;;
64609;SDS011;51019;46.090;6.350;2023-04-03T08:13:58;9.40;;;2.75;;
64609;SDS011;51019;46.090;6.350;2023-04-03T08:16:26;9.98;;;3.33;;
64609;SDS011;51019;46.090;6.350;2023-04-03T08:18:54;10.77;;;3.70;;
64609;SDS011;51019;46.090;6.350;2023-04-03T08:21:22;12.65;;;3.70;;
64609;SDS011;51019;46.090;6.350;2023-04-03T08:23:51;9.63;;;2.55;;
64609;SDS011;51019;46.090;6.350;2023-04-03T08:26:20;10.70;;;3.05;;
64609;SDS011;51019;46.090;6.350;2023-04-03T08:28:48;11.68;;;3.13;;
64609;SDS011;51019;46.090;6.350;2023-04-03T08:31:16;10.13;;;3.28;;
64609;SDS011;51019;46.090;6.350;2023-04-03T08:33:46;10.93;;;3.55;;
64609;SDS011;51019;46.090;6.350;2023-04-03T08:36:18;10.38;;;3.30;;
64609;SDS011;51019;46.090;6.350;2023-04-03T08:38:46;10.65;;;3.28;;
64609;SDS011;51019;46.090;6.350;2023-04-03T08:41:15;11.13;;;3.38;;
64609;SDS011;51019;46.090;6.350;2023-04-03T08:43:56;11.80;;;3.80;;
64609;SDS011;51019;46.090;6.350;2023-04-03T08:46:32;10.98;;;3.47;;
64609;SDS011;51019;46.090;6.350;2023-04-03T08:49:07;11.48;;;2.90;;
64609;SDS011;51019;46.090;6.350;2023-04-03T08:51:39;10.68;;;3.28;;
64609;SDS011;51019;46.090;6.350;2023-04-03T08:54:15;10.70;;;3.47;;
64609;SDS011;51019;46.090;6.350;2023-04-03T08:56:53;10.48;;;3.22;;
64609;SDS011;51019;46.090;6.350;2023-04-03T08:59:26;12.10;;;3.72;;
64609;SDS011;51019;46.090;6.350;2023-04-03T09:01:57;11.15;;;3.65;;
64609;SDS011;51019;46.090;6.350;2023-04-03T09:04:30;10.30;;;3.25;;
64609;SDS011;51019;46.090;6.350;2023-04-03T09:07:02;9.70;;;3.08;;
64609;SDS011;51019;46.090;6.350;2023-04-03T09:09:35;10.32;;;3.20;;
64609;SDS011;51019;46.090;6.350;2023-04-03T09:12:09;11.02;;;3.28;;
64609;SDS011;51019;46.090;6.350;2023-04-03T09:14:48;11.55;;;3.60;;
64609;SDS011;51019;46.090;6.350;2023-04-03T09:17:22;8.70;;;2.70;;
64609;SDS011;51019;46.090;6.350;2023-04-03T09:20:02;10.32;;;3.15;;
64609;SDS011;51019;46.090;6.350;2023-04-03T09:22:38;11.27;;;3.50;;
64609;SDS011;51019;46.090;6.350;2023-04-03T09:25:10;10.85;;;3.22;;
64609;SDS011;51019;46.090;6.350;2023-04-03T09:27:42;11.43;;;3.35;;
64609;SDS011;51019;46.090;6.350;2023-04-03T09:30:15;11.55;;;3.58;;
64609;SDS011;51019;46.090;6.350;2023-04-03T09:32:44;10.68;;;3.38;;
64609;SDS011;51019;46.090;6.350;2023-04-03T09:35:16;11.55;;;3.70;;
64609;SDS011;51019;46.090;6.350;2023-04-03T09:37:49;10.55;;;3.38;;
64609;SDS011;51019;46.090;6.350;2023-04-03T09:40:29;11.55;;;3.22;;
64609;SDS011;51019;46.090;6.350;2023-04-03T09:43:01;9.57;;;2.78;;
64609;SDS011;51019;46.090;6.350;2023-04-03T09:45:32;11.20;;;3.47;;
64609;SDS011;51019;46.090;6.350;2023-04-03T09:48:08;10.97;;;3.30;;
64609;SDS011;51019;46.090;6.350;2023-04-03T09:50:52;9.85;;;3.05;;
64609;SDS011;51019;46.090;6.350;2023-04-03T09:53:29;10.55;;;3.38;;
64609;SDS011;51019;46.090;6.350;2023-04-03T09:55:59;10.82;;;3.22;;
64609;SDS011;51019;46.090;6.350;2023-04-03T09:58:29;8.82;;;2.70;;
64609;SDS011;51019;46.090;6.350;2023-04-03T10:01:01;9.68;;;3.10;;
64609;SDS011;51019;46.090;6.350;2023-04-03T10:03:30;10.07;;;3.17;;
64609;SDS011;51019;46.090;6.350;2023-04-03T10:06:00;10.27;;;3.20;;
64609;SDS011;51019;46.090;6.350;2023-04-03T10:08:29;10.02;;;2.90;;
64609;SDS011;51019;46.090;6.350;2023-04-03T10:11:11;10.38;;;3.42;;
64609;SDS011;51019;46.090;6.350;2023-04-03T10:13:50;9.95;;;3.05;;
64609;SDS011;51019;46.090;6.350;2023-04-03T10:16:22;10.15;;;3.10;;
64609;SDS011;51019;46.090;6.350;2023-04-03T10:18:56;10.77;;;3.22;;
64609;SDS011;51019;46.090;6.350;2023-04-03T10:21:35;10.57;;;3.03;;
64609;SDS011;51019;46.090;6.350;2023-04-03T10:24:10;9.65;;;3.00;;
64609;SDS011;51019;46.090;6.350;2023-04-03T10:26:45;10.63;;;3.30;;
64609;SDS011;51019;46.090;6.350;2023-04-03T10:29:23;9.68;;;3.22;;
64609;SDS011;51019;46.090;6.350;2023-04-03T10:34:42;10.45;;;3.10;;
64609;SDS011;51019;46.090;6.350;2023-04-03T10:37:13;9.90;;;2.92;;
64609;SDS011;51019;46.090;6.350;2023-04-03T10:39:50;8.38;;;2.67;;
64609;SDS011;51019;46.090;6.350;2023-04-03T10:42:25;9.18;;;2.90;;
64609;SDS011;51019;46.090;6.350;2023-04-03T10:45:10;10.02;;;2.90;;
64609;SDS011;51019;46.090;6.350;2023-04-03T10:47:51;9.40;;;2.90;;
64609;SDS011;51019;46.090;6.350;2023-04-03T10:50:26;9.48;;;2.85;;
64609;SDS011;51019;46.090;6.350;2023-04-03T10:53:12;11.45;;;2.97;;
64609;SDS011;51019;46.090;6.350;2023-04-03T10:55:50;9.82;;;3.13;;
64609;SDS011;51019;46.090;6.350;2023-04-03T10:58:24;10.13;;;3.03;;
64609;SDS011;51019;46.090;6.350;2023-04-03T11:00:56;10.15;;;3.13;;
64609;SDS011;51019;46.090;6.350;2023-04-03T11:03:34;11.55;;;3.53;;
64609;SDS011;51019;46.090;6.350;2023-04-03T11:06:06;10.57;;;2.97;;
64609;SDS011;51019;46.090;6.350;2023-04-03T11:08:38;10.77;;;3.17;;
64609;SDS011;51019;46.090;6.350;2023-04-03T11:11:12;9.55;;;3.00;;
64609;SDS011;51019;46.090;6.350;2023-04-03T11:13:44;10.57;;;3.08;;
64609;SDS011;51019;46.090;6.350;2023-04-03T11:16:19;8.93;;;2.78;;
64609;SDS011;51019;46.090;6.350;2023-04-03T11:18:54;9.43;;;3.03;;
64609;SDS011;51019;46.090;6.350;2023-04-03T11:21:27;10.32;;;3.00;;
64609;SDS011;51019;46.090;6.350;2023-04-03T11:23:59;9.32;;;2.85;;
64609;SDS011;51019;46.090;6.350;2023-04-03T11:26:35;10.00;;;2.90;;
64609;SDS011;51019;46.090;6.350;2023-04-03T11:29:08;9.75;;;3.05;;
64609;SDS011;51019;46.090;6.350;2023-04-03T11:31:43;10.20;;;2.95;;
64609;SDS011;51019;46.090;6.350;2023-04-03T11:34:30;10.23;;;2.90;;
64609;SDS011;51019;46.090;6.350;2023-04-03T11:37:04;9.95;;;3.25;;
64609;SDS011;51019;46.090;6.350;2023-04-03T11:39:38;10.75;;;3.55;;
64609;SDS011;51019;46.090;6.350;2023-04-03T11:42:15;9.80;;;3.03;;
64609;SDS011;51019;46.090;6.350;2023-04-03T11:44:52;10.13;;;3.10;;
64609;SDS011;51019;46.090;6.350;2023-04-03T11:47:52;10.65;;;3.20;;
64609;SDS011;51019;46.090;6.350;2023-04-03T11:50:37;8.90;;;2.70;;
64609;SDS011;51019;46.090;6.350;2023-04-03T11:53:26;11.13;;;3.40;;
64609;SDS011;51019;46.090;6.350;2023-04-03T11:55:57;9.43;;;2.70;;
64609;SDS011;51019;46.090;6.350;2023-04-03T11:58:27;9.50;;;3.00;;
64609;SDS011;51019;46.090;6.350;2023-04-03T12:00:57;9.85;;;2.97;;
64609;SDS011;51019;46.090;6.350;2023-04-03T12:12:56;9.88;;;2.85;;
64609;SDS011;51019;46.090;6.350;2023-04-03T12:15:26;8.88;;;2.75;;
64609;SDS011;51019;46.090;6.350;2023-04-03T12:21:17;13.85;;;2.85;;
64609;SDS011;51019;46.090;6.350;2023-04-03T12:23:57;9.70;;;2.80;;
64609;SDS011;51019;46.090;6.350;2023-04-03T12:26:32;8.85;;;2.65;;
64609;SDS011;51019;46.090;6.350;2023-04-03T12:29:10;10.48;;;2.85;;
64609;SDS011;51019;46.090;6.350;2023-04-03T12:31:46;12.52;;;2.95;;
64609;SDS011;51019;46.090;6.350;2023-04-03T12:34:29;8.85;;;2.67;;
64609;SDS011;51019;46.090;6.350;2023-04-03T12:37:19;8.88;;;2.70;;
64609;SDS011;51019;46.090;6.350;2023-04-03T12:39:55;9.50;;;2.63;;
64609;SDS011;51019;46.090;6.350;2023-04-03T12:45:45;8.93;;;2.78;;
64609;SDS011;51019;46.090;6.350;2023-04-03T12:48:17;8.70;;;2.83;;
64609;SDS011;51019;46.090;6.350;2023-04-03T12:50:49;8.95;;;2.60;;
64609;SDS011;51019;46.090;6.350;2023-04-03T12:53:18;9.50;;;2.58;;
64609;SDS011;51019;46.090;6.350;2023-04-03T12:55:53;10.18;;;2.65;;
64609;SDS011;51019;46.090;6.350;2023-04-03T12:58:24;11.55;;;2.83;;
64609;SDS011;51019;46.090;6.350;2023-04-03T13:00:59;9.55;;;2.70;;
64609;SDS011;51019;46.090;6.350;2023-04-03T13:03:29;12.05;;;2.75;;
64609;SDS011;51019;46.090;6.350;2023-04-03T13:05:59;8.98;;;2.60;;
64609;SDS011;51019;46.090;6.350;2023-04-03T13:08:28;9.27;;;3.03;;
64609;SDS011;51019;46.090;6.350;2023-04-03T13:10:58;10.40;;;3.15;;
64609;SDS011;51019;46.090;6.350;2023-04-03T13:13:29;9.85;;;3.13;;
64609;SDS011;51019;46.090;6.350;2023-04-03T13:15:57;9.07;;;2.85;;
64609;SDS011;51019;46.090;6.350;2023-04-03T13:18:26;10.43;;;2.70;;
64609;SDS011;51019;46.090;6.350;2023-04-03T13:20:57;10.13;;;2.75;;
64609;SDS011;51019;46.090;6.350;2023-04-03T13:23:29;9.27;;;2.80;;
64609;SDS011;51019;46.090;6.350;2023-04-03T13:25:57;10.07;;;2.97;;
64609;SDS011;51019;46.090;6.350;2023-04-03T13:28:30;9.40;;;2.80;;
64609;SDS011;51019;46.090;6.350;2023-04-03T13:31:04;10.23;;;2.85;;
64609;SDS011;51019;46.090;6.350;2023-04-03T13:33:36;10.35;;;2.80;;
64609;SDS011;51019;46.090;6.350;2023-04-03T13:36:05;10.25;;;2.80;;
64609;SDS011;51019;46.090;6.350;2023-04-03T13:38:35;9.65;;;2.70;;
64609;SDS011;51019;46.090;6.350;2023-04-03T13:41:04;8.43;;;2.53;;
64609;SDS011;51019;46.090;6.350;2023-04-03T13:43:36;8.30;;;2.45;;
64609;SDS011;51019;46.090;6.350;2023-04-03T13:46:05;10.25;;;2.92;;
64609;SDS011;51019;46.090;6.350;2023-04-03T13:48:57;8.88;;;2.75;;
64609;SDS011;51019;46.090;6.350;2023-04-03T13:51:25;8.07;;;2.40;;
64609;SDS011;51019;46.090;6.350;2023-04-03T13:53:54;8.52;;;2.50;;
64609;SDS011;51019;46.090;6.350;2023-04-03T13:56:25;10.70;;;3.15;;
64609;SDS011;51019;46.090;6.350;2023-04-03T13:58:59;9.48;;;2.83;;
64609;SDS011;51019;46.090;6.350;2023-04-03T14:01:37;8.00;;;2.63;;
64609;SDS011;51019;46.090;6.350;2023-04-03T14:04:12;9.48;;;2.65;;
64609;SDS011;51019;46.090;6.350;2023-04-03T14:06:42;9.73;;;2.72;;
64609;SDS011;51019;46.090;6.350;2023-04-03T14:09:09;9.75;;;3.22;;
64609;SDS011;51019;46.090;6.350;2023-04-03T14:11:36;9.43;;;2.90;;
64609;SDS011;51019;46.090;6.350;2023-04-03T14:14:09;9.98;;;2.80;;
64609;SDS011;51019;46.090;6.350;2023-04-03T14:16:41;9.35;;;2.90;;
64609;SDS011;51019;46.090;6.350;2023-04-03T14:19:17;8.73;;;2.50;;
64609;SDS011;51019;46.090;6.350;2023-04-03T14:21:47;9.52;;;2.92;;
64609;SDS011;51019;46.090;6.350;2023-04-03T14:24:16;9.75;;;3.00;;
64609;SDS011;51019;46.090;6.350;2023-04-03T14:26:44;9.73;;;2.90;;
64609;SDS011;51019;46.090;6.350;2023-04-03T14:29:14;10.05;;;2.92;;
64609;SDS011;51019;46.090;6.350;2023-04-03T14:31:44;9.50;;;2.83;;
64609;SDS011;51019;46.090;6.350;2023-04-03T14:34:12;10.40;;;3.08;;
64609;SDS011;51019;46.090;6.350;2023-04-03T14:36:41;10.90;;;3.00;;
64609;SDS011;51019;46.090;6.350;2023-04-03T14:39:11;9.70;;;3.03;;
64609;SDS011;51019;46.090;6.350;2023-04-03T14:41:45;11.95;;;3.03;;
64609;SDS011;51019;46.090;6.350;2023-04-03T14:44:14;9.95;;;2.95;;
64609;SDS011;51019;46.090;6.350;2023-04-03T14:46:42;9.73;;;2.95;;
64609;SDS011;51019;46.090;6.350;2023-04-03T14:49:12;10.68;;;3.35;;
64609;SDS011;51019;46.090;6.350;2023-04-03T14:51:42;9.32;;;3.08;;
64609;SDS011;51019;46.090;6.350;2023-04-03T14:54:12;10.88;;;3.00;;
64609;SDS011;51019;46.090;6.350;2023-04-03T14:56:40;10.48;;;3.08;;
64609;SDS011;51019;46.090;6.350;2023-04-03T14:59:09;10.88;;;3.35;;
64609;SDS011;51019;46.090;6.350;2023-04-03T15:01:41;9.48;;;2.80;;
64609;SDS011;51019;46.090;6.350;2023-04-03T15:04:10;9.65;;;3.22;;
64609;SDS011;51019;46.090;6.350;2023-04-03T15:06:38;9.93;;;3.10;;
64609;SDS011;51019;46.090;6.350;2023-04-03T15:09:08;9.73;;;3.22;;
64609;SDS011;51019;46.090;6.350;2023-04-03T15:11:45;10.20;;;3.10;;
64609;SDS011;51019;46.090;6.350;2023-04-03T15:14:13;8.88;;;2.75;;
64609;SDS011;51019;46.090;6.350;2023-04-03T15:16:42;10.10;;;2.67;;
64609;SDS011;51019;46.090;6.350;2023-04-03T15:19:10;10.57;;;3.35;;